createdAt,value
2017-03-01T00:00:04.749Z,20.11
2017-03-01T00:01:15.039Z,20.2
2017-03-01T00:02:24.553Z,20.08
2017-03-01T00:03:34.835Z,20.1
2017-03-01T00:04:45.815Z,20.21
2017-03-01T00:05:56.079Z,20.23
2017-03-01T00:07:06.733Z,20.17
2017-03-01T00:08:17.407Z,20.21
2017-03-01T00:09:28.089Z,20.21
2017-03-01T00:10:38.536Z,20.21
2017-03-01T00:11:48.839Z,20.21
2017-03-01T00:12:59.113Z,20.18
2017-03-01T00:14:09.010Z,20.26
2017-03-01T00:15:19.271Z,20.21
2017-03-01T00:16:29.501Z,20.18
2017-03-01T00:17:39.830Z,20.21
2017-03-01T00:18:49.705Z,20.2
2017-03-01T00:20:00.374Z,20.17
2017-03-01T00:21:10.640Z,20.21
2017-03-01T00:22:21.165Z,20.17
2017-03-01T00:23:31.084Z,20.18
2017-03-01T00:24:40.579Z,20.2
2017-03-01T00:25:50.892Z,20.29
2017-03-01T00:27:01.177Z,20.18
2017-03-01T00:28:11.403Z,20.24
2017-03-01T00:29:22.082Z,20.2
2017-03-01T00:30:32.748Z,20.17
2017-03-01T00:31:42.634Z,20.23
2017-03-01T00:32:52.918Z,20.2
2017-03-01T00:34:03.354Z,20.2
2017-03-01T00:35:14.008Z,20.21
2017-03-01T00:36:24.294Z,20.14
2017-03-01T00:37:34.556Z,20.17
2017-03-01T00:38:44.459Z,20.23
2017-03-01T00:39:55.091Z,20.2
2017-03-01T00:41:04.588Z,20.21
2017-03-01T00:42:14.471Z,20.23
2017-03-01T00:43:24.360Z,20.18
2017-03-01T00:44:34.235Z,20.23
2017-03-01T00:45:44.265Z,20.24
2017-03-01T00:46:54.564Z,20.18
2017-03-01T00:48:04.466Z,20.17
2017-03-01T00:49:14.768Z,20.17
2017-03-01T00:50:24.641Z,20.21
2017-03-01T00:51:35.591Z,20.24
2017-03-01T00:52:45.870Z,20.17
2017-03-01T00:53:56.149Z,20.18
2017-03-01T00:55:06.828Z,20.21
2017-03-01T00:56:17.130Z,20.21
2017-03-01T00:57:27.902Z,20.21
2017-03-01T00:58:38.174Z,20.24
2017-03-01T00:59:48.439Z,20.21
2017-03-01T01:00:59.089Z,20.18
2017-03-01T01:02:09.747Z,20.17
2017-03-01T01:03:20.329Z,20.21
2017-03-01T01:04:30.599Z,20.26
2017-03-01T01:05:40.872Z,20.14
2017-03-01T01:06:51.547Z,20.28
2017-03-01T01:08:01.841Z,20.2
2017-03-01T01:09:12.470Z,20.18
2017-03-01T01:10:23.124Z,20.17
2017-03-01T01:11:33.392Z,20.16
2017-03-01T01:12:43.680Z,20.21
2017-03-01T01:13:53.547Z,20.17
2017-03-01T01:15:04.370Z,20.14
2017-03-01T01:16:14.659Z,20.18
2017-03-01T01:17:24.950Z,20.28
2017-03-01T01:18:35.220Z,20.2
2017-03-01T01:19:45.913Z,20.17
2017-03-01T01:20:56.927Z,20.2
2017-03-01T01:22:07.631Z,20.2
2017-03-01T01:23:17.931Z,20.11
2017-03-01T01:24:27.799Z,20.16
2017-03-01T01:25:37.669Z,20.2
2017-03-01T01:26:48.088Z,20.2
2017-03-01T01:27:58.752Z,20.23
2017-03-01T01:29:09.024Z,20.17
2017-03-01T01:30:19.677Z,20.21
2017-03-01T01:31:30.326Z,20.21
2017-03-01T01:32:40.765Z,20.11
2017-03-01T01:33:51.039Z,20.21
2017-03-01T01:35:01.704Z,20.21
2017-03-01T01:36:12.376Z,20.2
2017-03-01T01:37:22.661Z,20.17
2017-03-01T01:38:33.654Z,20.23
2017-03-01T01:39:44.332Z,20.21
2017-03-01T01:40:54.230Z,20.24
2017-03-01T01:42:04.921Z,20.16
2017-03-01T01:43:14.792Z,20.13
2017-03-01T01:44:25.573Z,20.13
2017-03-01T01:45:35.854Z,20.23
2017-03-01T01:46:46.531Z,20.18
2017-03-01T01:47:56.032Z,20.16
2017-03-01T01:49:06.715Z,20.17
2017-03-01T01:50:17.280Z,20.08
2017-03-01T01:51:26.780Z,20.13
2017-03-01T01:52:37.049Z,20.13
2017-03-01T01:53:47.715Z,20.21
2017-03-01T01:54:58.379Z,20.18
2017-03-01T01:56:08.019Z,20.1
2017-03-01T01:57:18.287Z,20.18
2017-03-01T01:58:28.593Z,20.17
2017-03-01T01:59:38.502Z,20.1
2017-03-01T02:00:49.165Z,20.23
2017-03-01T02:01:59.731Z,20.13
2017-03-01T02:03:10.003Z,20.17
2017-03-01T02:04:20.284Z,20.16
2017-03-01T02:05:29.793Z,20.14
2017-03-01T02:06:39.320Z,20.08
2017-03-01T02:07:50.326Z,20.11
2017-03-01T02:09:00.992Z,20.06
2017-03-01T02:10:11.271Z,20.06
2017-03-01T02:11:21.959Z,20.08
2017-03-01T02:12:32.236Z,20.13
2017-03-01T02:13:42.820Z,20.13
2017-03-01T02:14:53.507Z,20.13
2017-03-01T02:16:04.182Z,20.1
2017-03-01T02:17:14.444Z,20.11
2017-03-01T02:18:24.352Z,20.1
2017-03-01T02:19:34.745Z,20.13
2017-03-01T02:20:45.013Z,20.18
2017-03-01T02:21:54.901Z,20.08
2017-03-01T02:23:04.807Z,20.1
2017-03-01T02:24:15.099Z,20.2
2017-03-01T02:25:25.617Z,20.14
2017-03-01T02:26:36.267Z,20.13
2017-03-01T02:27:46.935Z,20.16
2017-03-01T02:28:57.196Z,20.08
2017-03-01T02:30:07.069Z,20.11
2017-03-01T02:31:17.897Z,20.13
2017-03-01T02:32:27.801Z,20.1
2017-03-01T02:33:38.472Z,20.11
2017-03-01T02:34:49.124Z,20.18
2017-03-01T02:35:59.402Z,20.06
2017-03-01T02:37:09.421Z,20.16
2017-03-01T02:38:19.727Z,20.1
2017-03-01T02:39:30.384Z,20.16
2017-03-01T02:40:40.682Z,20.11
2017-03-01T02:41:50.574Z,20.13
2017-03-01T02:43:01.488Z,20.16
2017-03-01T02:44:12.167Z,20.16
2017-03-01T02:45:22.061Z,20.11
2017-03-01T02:46:31.848Z,20.1
2017-03-01T02:47:41.348Z,20.05
2017-03-01T02:48:51.528Z,20.1
2017-03-01T02:50:01.820Z,20.16
2017-03-01T02:51:11.303Z,20.14
2017-03-01T02:52:21.573Z,20.1
2017-03-01T02:53:31.443Z,20.13
2017-03-01T02:54:42.460Z,20.11
2017-03-01T02:55:51.952Z,20.13
2017-03-01T02:57:02.223Z,20.06
2017-03-01T02:58:12.497Z,20.13
2017-03-01T02:59:22.770Z,20.16
2017-03-01T03:00:32.802Z,20.05
2017-03-01T03:01:43.056Z,20.16
2017-03-01T03:02:52.558Z,20.11
2017-03-01T03:04:02.064Z,20.14
2017-03-01T03:05:11.960Z,20.11
2017-03-01T03:06:22.784Z,20.14
2017-03-01T03:07:33.065Z,20.11
2017-03-01T03:08:44.031Z,20.02
2017-03-01T03:09:54.340Z,20.08
2017-03-01T03:11:04.998Z,20.14
2017-03-01T03:12:15.841Z,20.11
2017-03-01T03:13:25.754Z,20.1
2017-03-01T03:14:36.409Z,20.11
2017-03-01T03:15:46.694Z,20.05
2017-03-01T03:16:56.209Z,20.1
2017-03-01T03:18:06.390Z,20.05
2017-03-01T03:19:17.088Z,20.1
2017-03-01T03:20:27.765Z,20.11
2017-03-01T03:21:38.429Z,20.13
2017-03-01T03:22:47.912Z,20.11
2017-03-01T03:23:58.487Z,20.08
2017-03-01T03:25:08.388Z,20.1
2017-03-01T03:26:18.673Z,20.1
2017-03-01T03:27:28.955Z,20.08
2017-03-01T03:28:39.232Z,20.11
2017-03-01T03:29:50.149Z,20.11
2017-03-01T03:31:00.836Z,20.08
2017-03-01T03:32:11.094Z,20.08
2017-03-01T03:33:21.365Z,20.11
2017-03-01T03:34:31.239Z,20.14
2017-03-01T03:35:41.479Z,20.11
2017-03-01T03:36:52.198Z,20.1
2017-03-01T03:38:02.074Z,20.16
2017-03-01T03:39:12.726Z,20.11
2017-03-01T03:40:23.398Z,20.1
2017-03-01T03:41:34.041Z,20.06
2017-03-01T03:42:44.323Z,20.06
2017-03-01T03:43:53.842Z,20.05
2017-03-01T03:45:04.523Z,20.05
2017-03-01T03:46:15.185Z,20.1
2017-03-01T03:47:25.704Z,20.13
2017-03-01T03:48:36.391Z,20.11
2017-03-01T03:49:46.305Z,20.1
2017-03-01T03:50:56.571Z,20.13
2017-03-01T03:52:07.255Z,20.1
2017-03-01T03:53:18.286Z,20.14
2017-03-01T03:54:28.576Z,20.1
2017-03-01T03:55:39.267Z,20.08
2017-03-01T03:56:49.558Z,20.14
2017-03-01T03:57:59.847Z,20.08
2017-03-01T03:59:10.885Z,20.16
2017-03-01T04:00:21.172Z,20.06
2017-03-01T04:01:31.480Z,20.14
2017-03-01T04:02:41.784Z,20.06
2017-03-01T04:03:52.452Z,20.1
2017-03-01T04:05:02.629Z,20.08
2017-03-01T04:06:13.296Z,20.14
2017-03-01T04:07:23.571Z,20.06
2017-03-01T04:08:33.858Z,20.06
2017-03-01T04:09:44.517Z,20.06
2017-03-01T04:10:55.555Z,20.1
2017-03-01T04:12:05.453Z,20.1
2017-03-01T04:13:16.397Z,20.13
2017-03-01T04:14:26.260Z,20.06
2017-03-01T04:15:36.953Z,20.14
2017-03-01T04:16:47.153Z,20.1
2017-03-01T04:17:57.828Z,20.05
2017-03-01T04:19:08.122Z,20.08
2017-03-01T04:20:18.407Z,20.03
2017-03-01T04:21:28.671Z,20.16
2017-03-01T04:22:38.865Z,20.08
2017-03-01T04:23:49.164Z,20.03
2017-03-01T04:24:58.650Z,20.08
2017-03-01T04:26:08.140Z,20.06
2017-03-01T04:27:18.020Z,20.03
2017-03-01T04:28:28.984Z,20.08
2017-03-01T04:29:39.654Z,20.06
2017-03-01T04:30:49.946Z,20.06
2017-03-01T04:32:00.595Z,20.1
2017-03-01T04:33:10.874Z,20.13
2017-03-01T04:34:21.411Z,20.08
2017-03-01T04:35:31.288Z,20.11
2017-03-01T04:36:41.569Z,20.1
2017-03-01T04:37:52.256Z,20.1
2017-03-01T04:39:03.216Z,20.08
2017-03-01T04:40:12.642Z,20.11
2017-03-01T04:41:23.320Z,20.01
2017-03-01T04:42:33.583Z,20.03
2017-03-01T04:43:43.867Z,20.01
2017-03-01T04:44:54.151Z,20.03
2017-03-01T04:46:04.545Z,20.1
2017-03-01T04:47:14.822Z,20.03
2017-03-01T04:48:25.126Z,20.1
2017-03-01T04:49:35.028Z,20.11
2017-03-01T04:50:45.312Z,20.1
2017-03-01T04:51:56.290Z,20.11
2017-03-01T04:53:06.567Z,20.11
2017-03-01T04:54:16.072Z,20.06
2017-03-01T04:55:26.013Z,20.02
2017-03-01T04:56:35.884Z,19.99
2017-03-01T04:57:46.719Z,20.06
2017-03-01T04:58:57.006Z,20.03
2017-03-01T05:00:07.675Z,20.13
2017-03-01T05:01:18.627Z,20.03
2017-03-01T05:02:29.298Z,20.1
2017-03-01T05:03:40.178Z,20.05
2017-03-01T05:04:50.061Z,20.03
2017-03-01T05:06:00.348Z,20.01
2017-03-01T05:07:10.267Z,20.05
2017-03-01T05:08:20.621Z,19.98
2017-03-01T05:09:30.660Z,20.06
2017-03-01T05:10:41.316Z,19.99
2017-03-01T05:11:51.224Z,19.99
2017-03-01T05:13:01.522Z,20.01
2017-03-01T05:14:12.171Z,19.99
2017-03-01T05:15:22.207Z,19.99
2017-03-01T05:16:32.478Z,20.01
2017-03-01T05:17:42.762Z,19.98
2017-03-01T05:18:53.439Z,19.99
2017-03-01T05:20:04.091Z,20.02
2017-03-01T05:21:15.006Z,20.08
2017-03-01T05:22:25.286Z,20.1
2017-03-01T05:23:35.552Z,20.06
2017-03-01T05:24:45.435Z,20.06
2017-03-01T05:25:55.725Z,19.98
2017-03-01T05:27:05.373Z,19.99
2017-03-01T05:28:15.671Z,20.03
2017-03-01T05:29:26.335Z,19.98
2017-03-01T05:30:37.014Z,19.98
2017-03-01T05:31:47.293Z,20.01
2017-03-01T05:32:57.340Z,20.06
2017-03-01T05:34:08.006Z,20.08
2017-03-01T05:35:18.284Z,20.14
2017-03-01T05:36:28.938Z,20.11
2017-03-01T05:37:39.204Z,20.11
2017-03-01T05:38:50.020Z,20.06
2017-03-01T05:39:59.899Z,20.17
2017-03-01T05:41:10.176Z,20.18
2017-03-01T05:42:20.840Z,20.13
2017-03-01T05:43:31.123Z,20.29
2017-03-01T05:44:41.505Z,20.35
2017-03-01T05:45:52.170Z,20.32
2017-03-01T05:47:02.476Z,20.43
2017-03-01T05:48:12.359Z,20.51
2017-03-01T05:49:23.009Z,20.5
2017-03-01T05:50:33.153Z,20.64
2017-03-01T05:51:43.067Z,20.64
2017-03-01T05:52:53.729Z,20.7
2017-03-01T05:54:04.401Z,20.67
2017-03-01T05:55:15.077Z,20.7
2017-03-01T05:56:25.085Z,20.85
2017-03-01T05:57:34.962Z,20.77
2017-03-01T05:58:44.444Z,20.85
2017-03-01T05:59:54.328Z,20.8
2017-03-01T06:01:04.213Z,20.95
2017-03-01T06:02:14.850Z,20.94
2017-03-01T06:03:25.108Z,21.06
2017-03-01T06:04:35.379Z,21.09
2017-03-01T06:05:45.649Z,21.04
2017-03-01T06:06:56.315Z,21.13
2017-03-01T06:08:07.112Z,21.16
2017-03-01T06:09:17.786Z,21.27
2017-03-01T06:10:27.676Z,21.22
2017-03-01T06:11:38.364Z,21.32
2017-03-01T06:12:48.666Z,21.31
2017-03-01T06:13:59.468Z,21.35
2017-03-01T06:15:10.143Z,21.44
2017-03-01T06:16:20.046Z,21.38
2017-03-01T06:17:30.737Z,21.42
2017-03-01T06:18:40.224Z,21.37
2017-03-01T06:19:50.803Z,21.59
2017-03-01T06:21:00.708Z,21.58
2017-03-01T06:22:11.000Z,21.61
2017-03-01T06:23:21.678Z,21.61
2017-03-01T06:24:32.337Z,21.64
2017-03-01T06:25:42.959Z,21.65
2017-03-01T06:26:53.239Z,21.71
2017-03-01T06:28:03.895Z,21.75
2017-03-01T06:29:14.563Z,21.8
2017-03-01T06:30:24.848Z,21.79
2017-03-01T06:31:34.677Z,21.92
2017-03-01T06:32:44.969Z,21.88
2017-03-01T06:33:55.244Z,21.96
2017-03-01T06:35:05.913Z,21.99
2017-03-01T06:36:16.206Z,21.98
2017-03-01T06:37:26.240Z,22.02
2017-03-01T06:38:36.499Z,22.14
2017-03-01T06:39:47.161Z,22.2
2017-03-01T06:40:57.841Z,22.17
2017-03-01T06:42:07.728Z,22.21
2017-03-01T06:43:18.318Z,22.21
2017-03-01T06:44:28.221Z,22.22
2017-03-01T06:45:38.486Z,22.2
2017-03-01T06:46:48.382Z,22.33
2017-03-01T06:47:57.904Z,22.31
2017-03-01T06:49:08.487Z,22.35
2017-03-01T06:50:18.780Z,22.28
2017-03-01T06:51:28.679Z,22.4
2017-03-01T06:52:38.942Z,22.4
2017-03-01T06:53:49.604Z,22.36
2017-03-01T06:55:00.236Z,22.4
2017-03-01T06:56:10.136Z,22.46
2017-03-01T06:57:19.235Z,22.4
2017-03-01T06:58:29.119Z,22.46
2017-03-01T06:59:39.018Z,22.46
2017-03-01T07:00:49.791Z,22.37
2017-03-01T07:02:00.465Z,22.42
2017-03-01T07:03:10.744Z,22.45
2017-03-01T07:04:21.411Z,22.45
2017-03-01T07:05:31.325Z,22.45
2017-03-01T07:06:41.755Z,22.46
2017-03-01T07:07:52.036Z,22.36
2017-03-01T07:09:02.305Z,22.39
2017-03-01T07:10:12.225Z,22.43
2017-03-01T07:11:22.894Z,22.45
2017-03-01T07:12:33.131Z,22.4
2017-03-01T07:13:43.800Z,22.4
2017-03-01T07:14:53.315Z,22.39
2017-03-01T07:16:03.585Z,22.35
2017-03-01T07:17:13.880Z,22.39
2017-03-01T07:18:24.321Z,22.35
2017-03-01T07:19:34.992Z,22.35
2017-03-01T07:20:45.672Z,22.33
2017-03-01T07:21:55.954Z,22.3
2017-03-01T07:23:06.623Z,22.27
2017-03-01T07:24:17.608Z,21.99
2017-03-01T07:25:28.307Z,21.44
2017-03-01T07:26:38.618Z,21.04
2017-03-01T07:27:48.909Z,20.51
2017-03-01T07:28:59.567Z,20.14
2017-03-01T07:30:10.101Z,19.71
2017-03-01T07:31:20.793Z,19.47
2017-03-01T07:32:30.705Z,19.08
2017-03-01T07:33:41.379Z,18.9
2017-03-01T07:34:51.291Z,18.5
2017-03-01T07:36:01.690Z,18.21
2017-03-01T07:37:12.376Z,17.95
2017-03-01T07:38:22.684Z,17.81
2017-03-01T07:39:33.370Z,17.62
2017-03-01T07:40:43.643Z,17.41
2017-03-01T07:41:54.471Z,17.3
2017-03-01T07:43:04.780Z,17.12
2017-03-01T07:44:15.478Z,17.01
2017-03-01T07:45:25.773Z,16.96
2017-03-01T07:46:36.465Z,16.73
2017-03-01T07:47:47.077Z,16.61
2017-03-01T07:48:56.976Z,16.49
2017-03-01T07:50:07.654Z,16.39
2017-03-01T07:51:18.360Z,16.27
2017-03-01T07:52:28.652Z,16.11
2017-03-01T07:53:39.493Z,16.12
2017-03-01T07:54:49.402Z,16
2017-03-01T07:55:58.903Z,16.11
2017-03-01T07:57:09.195Z,15.97
2017-03-01T07:58:19.466Z,15.84
2017-03-01T07:59:29.713Z,15.75
2017-03-01T08:00:40.396Z,15.8
2017-03-01T08:01:50.656Z,15.69
2017-03-01T08:03:00.935Z,15.71
2017-03-01T08:04:11.220Z,15.68
2017-03-01T08:05:21.281Z,15.6
2017-03-01T08:06:31.180Z,15.49
2017-03-01T08:07:40.290Z,15.44
2017-03-01T08:08:50.579Z,15.43
2017-03-01T08:10:00.860Z,15.39
2017-03-01T08:11:11.297Z,15.41
2017-03-01T08:12:21.241Z,15.32
2017-03-01T08:13:30.376Z,15.34
2017-03-01T08:14:40.274Z,15.38
2017-03-01T08:15:50.143Z,15.41
2017-03-01T08:17:00.563Z,15.39
2017-03-01T08:18:11.243Z,15.39
2017-03-01T08:19:21.934Z,15.38
2017-03-01T08:20:32.218Z,15.41
2017-03-01T08:21:42.886Z,15.31
2017-03-01T08:22:53.436Z,15.27
2017-03-01T08:24:03.725Z,15.25
2017-03-01T08:25:13.225Z,15.21
2017-03-01T08:26:23.907Z,15.23
2017-03-01T08:27:34.291Z,15.2
2017-03-01T08:28:44.361Z,15.29
2017-03-01T08:29:54.631Z,15.28
2017-03-01T08:31:04.930Z,15.28
2017-03-01T08:32:15.614Z,15.23
2017-03-01T08:33:25.909Z,15.21
2017-03-01T08:34:36.359Z,15.32
2017-03-01T08:35:46.660Z,15.34
2017-03-01T08:36:56.553Z,15.35
2017-03-01T08:38:07.213Z,15.35
2017-03-01T08:39:17.883Z,15.34
2017-03-01T08:40:28.538Z,15.32
2017-03-01T08:41:38.420Z,15.29
2017-03-01T08:42:49.106Z,15.32
2017-03-01T08:43:59.770Z,15.35
2017-03-01T08:45:10.718Z,15.36
2017-03-01T08:46:21.690Z,15.38
2017-03-01T08:47:31.970Z,15.44
2017-03-01T08:48:42.235Z,15.34
2017-03-01T08:49:52.915Z,15.32
2017-03-01T08:51:03.578Z,15.29
2017-03-01T08:52:14.615Z,15.39
2017-03-01T08:53:25.284Z,15.44
2017-03-01T08:54:34.780Z,15.41
2017-03-01T08:55:45.433Z,15.31
2017-03-01T08:56:56.128Z,15.38
2017-03-01T08:58:07.137Z,15.34
2017-03-01T08:59:17.021Z,15.31
2017-03-01T09:00:27.319Z,15.38
2017-03-01T09:01:37.198Z,15.41
2017-03-01T09:02:47.077Z,15.38
2017-03-01T09:03:56.700Z,15.32
2017-03-01T09:05:07.390Z,15.27
2017-03-01T09:06:18.047Z,15.27
2017-03-01T09:07:28.337Z,15.29
2017-03-01T09:08:38.637Z,15.25
2017-03-01T09:09:49.240Z,15.29
2017-03-01T09:10:59.142Z,15.28
2017-03-01T09:12:09.379Z,15.31
2017-03-01T09:13:20.386Z,15.41
2017-03-01T09:14:30.276Z,15.36
2017-03-01T09:15:40.697Z,15.46
2017-03-01T09:16:50.982Z,15.44
2017-03-01T09:18:01.662Z,15.44
2017-03-01T09:19:11.551Z,15.46
2017-03-01T09:20:22.263Z,15.53
2017-03-01T09:21:32.800Z,15.49
2017-03-01T09:22:42.703Z,15.46
2017-03-01T09:23:52.573Z,15.47
2017-03-01T09:25:02.452Z,15.51
2017-03-01T09:26:12.760Z,15.5
2017-03-01T09:27:23.333Z,15.46
2017-03-01T09:28:33.200Z,15.47
2017-03-01T09:29:43.869Z,15.44
2017-03-01T09:30:53.377Z,15.43
2017-03-01T09:32:03.289Z,15.5
2017-03-01T09:33:13.673Z,15.43
2017-03-01T09:34:24.365Z,15.38
2017-03-01T09:35:35.054Z,15.34
2017-03-01T09:36:45.732Z,15.38
2017-03-01T09:37:56.015Z,15.43
2017-03-01T09:39:07.272Z,15.46
2017-03-01T09:40:17.548Z,15.43
2017-03-01T09:41:28.234Z,15.44
2017-03-01T09:42:38.134Z,15.39
2017-03-01T09:43:48.442Z,15.41
2017-03-01T09:44:58.989Z,15.41
2017-03-01T09:46:09.348Z,15.39
2017-03-01T09:47:20.028Z,15.47
2017-03-01T09:48:30.677Z,15.49
2017-03-01T09:49:40.947Z,15.41
2017-03-01T09:50:51.092Z,15.31
2017-03-01T09:52:01.407Z,15.44
2017-03-01T09:53:12.073Z,15.35
2017-03-01T09:54:22.379Z,15.28
2017-03-01T09:55:32.667Z,15.21
2017-03-01T09:56:43.661Z,15.27
2017-03-01T09:57:53.563Z,15.23
2017-03-01T09:59:04.243Z,15.2
2017-03-01T10:00:14.914Z,15.21
2017-03-01T10:01:25.168Z,15.25
2017-03-01T10:02:35.979Z,15.27
2017-03-01T10:03:46.632Z,15.29
2017-03-01T10:04:56.519Z,15.38
2017-03-01T10:06:07.175Z,15.32
2017-03-01T10:07:17.084Z,15.34
2017-03-01T10:08:27.841Z,15.27
2017-03-01T10:09:38.518Z,15.27
2017-03-01T10:10:48.834Z,15.23
2017-03-01T10:11:59.127Z,15.17
2017-03-01T10:13:09.818Z,15.21
2017-03-01T10:14:20.805Z,15.14
2017-03-01T10:15:31.081Z,15.19
2017-03-01T10:16:41.345Z,15.19
2017-03-01T10:17:51.601Z,15.14
2017-03-01T10:19:01.879Z,15.07
2017-03-01T10:20:12.778Z,14.98
2017-03-01T10:21:23.051Z,15.03
2017-03-01T10:22:33.708Z,15.06
2017-03-01T10:23:43.205Z,15.09
2017-03-01T10:24:53.857Z,15.01
2017-03-01T10:26:03.918Z,15.03
2017-03-01T10:27:13.817Z,14.95
2017-03-01T10:28:23.702Z,15.01
2017-03-01T10:29:34.400Z,14.94
2017-03-01T10:30:44.281Z,14.92
2017-03-01T10:31:54.305Z,14.92
2017-03-01T10:33:04.204Z,14.91
2017-03-01T10:34:14.857Z,14.75
2017-03-01T10:35:25.116Z,14.69
2017-03-01T10:36:35.427Z,14.64
2017-03-01T10:37:46.254Z,14.7
2017-03-01T10:38:56.929Z,14.61
2017-03-01T10:40:06.840Z,14.64
2017-03-01T10:41:17.120Z,14.58
2017-03-01T10:42:27.384Z,14.52
2017-03-01T10:43:37.966Z,14.51
2017-03-01T10:44:48.249Z,14.37
2017-03-01T10:45:58.914Z,14.39
2017-03-01T10:47:08.786Z,14.37
2017-03-01T10:48:18.664Z,14.37
2017-03-01T10:49:28.906Z,14.42
2017-03-01T10:50:39.562Z,14.28
2017-03-01T10:51:50.262Z,14.21
2017-03-01T10:53:00.534Z,14.18
2017-03-01T10:54:10.793Z,14.18
2017-03-01T10:55:21.826Z,14.09
2017-03-01T10:56:32.108Z,14.04
2017-03-01T10:57:42.405Z,14.04
2017-03-01T10:58:52.681Z,13.97
2017-03-01T11:00:02.959Z,13.87
2017-03-01T11:01:13.729Z,13.92
2017-03-01T11:02:23.644Z,13.85
2017-03-01T11:03:33.911Z,13.88
2017-03-01T11:04:44.581Z,13.88
2017-03-01T11:05:54.857Z,13.87
2017-03-01T11:07:05.384Z,13.77
2017-03-01T11:08:15.725Z,13.78
2017-03-01T11:09:25.630Z,13.87
2017-03-01T11:10:35.541Z,13.73
2017-03-01T11:11:46.206Z,13.73
2017-03-01T11:12:56.798Z,13.7
2017-03-01T11:14:07.116Z,13.73
2017-03-01T11:15:17.790Z,13.71
2017-03-01T11:16:28.061Z,13.69
2017-03-01T11:17:37.961Z,13.67
2017-03-01T11:18:48.585Z,13.64
2017-03-01T11:19:59.257Z,13.77
2017-03-01T11:21:09.935Z,13.77
2017-03-01T11:22:20.220Z,13.67
2017-03-01T11:23:30.094Z,13.75
2017-03-01T11:24:40.701Z,13.75
2017-03-01T11:25:50.192Z,13.78
2017-03-01T11:27:00.773Z,13.79
2017-03-01T11:28:11.423Z,13.92
2017-03-01T11:29:21.691Z,13.85
2017-03-01T11:30:31.431Z,13.87
2017-03-01T11:31:41.710Z,13.99
2017-03-01T11:32:51.590Z,14
2017-03-01T11:34:02.249Z,14.02
2017-03-01T11:35:12.535Z,14.09
2017-03-01T11:36:23.163Z,14.07
2017-03-01T11:37:33.047Z,14.09
2017-03-01T11:38:43.719Z,14.1
2017-03-01T11:39:54.001Z,14.06
2017-03-01T11:41:04.272Z,14.1
2017-03-01T11:42:14.357Z,14.21
2017-03-01T11:43:23.877Z,14.17
2017-03-01T11:44:34.868Z,14.15
2017-03-01T11:45:45.551Z,14.15
2017-03-01T11:46:56.213Z,14.14
2017-03-01T11:48:06.379Z,14.1
2017-03-01T11:49:17.058Z,14.06
2017-03-01T11:50:27.751Z,14.09
2017-03-01T11:51:38.416Z,13.99
2017-03-01T11:52:48.682Z,14.12
2017-03-01T11:53:59.272Z,14.12
2017-03-01T11:55:09.175Z,14.06
2017-03-01T11:56:19.843Z,14.1
2017-03-01T11:57:29.365Z,14.14
2017-03-01T11:58:39.252Z,14.18
2017-03-01T11:59:49.914Z,14.17
2017-03-01T12:01:00.190Z,14.14
2017-03-01T12:02:10.481Z,14.17
2017-03-01T12:03:21.188Z,14.1
2017-03-01T12:04:31.489Z,13.97
2017-03-01T12:05:42.250Z,14.03
2017-03-01T12:06:52.523Z,14.12
2017-03-01T12:08:02.802Z,14.04
2017-03-01T12:09:13.079Z,14.07
2017-03-01T12:10:22.986Z,14.09
2017-03-01T12:11:33.002Z,14.12
2017-03-01T12:12:43.674Z,14.1
2017-03-01T12:13:53.582Z,14.14
2017-03-01T12:15:04.261Z,14.17
2017-03-01T12:16:13.355Z,14.14
2017-03-01T12:17:23.902Z,14.2
2017-03-01T12:18:33.814Z,14.17
2017-03-01T12:19:44.503Z,14.22
2017-03-01T12:20:55.182Z,14.17
2017-03-01T12:22:05.451Z,14.15
2017-03-01T12:23:15.810Z,14.15
2017-03-01T12:24:26.099Z,14.17
2017-03-01T12:25:35.589Z,14.07
2017-03-01T12:26:45.739Z,14.03
2017-03-01T12:27:56.403Z,14.06
2017-03-01T12:29:06.533Z,14.12
2017-03-01T12:30:16.832Z,14.03
2017-03-01T12:31:27.499Z,14.12
2017-03-01T12:32:38.188Z,14.2
2017-03-01T12:33:48.085Z,14.18
2017-03-01T12:34:58.544Z,14.17
2017-03-01T12:36:08.820Z,14.12
2017-03-01T12:37:19.103Z,14.09
2017-03-01T12:38:28.984Z,14.02
2017-03-01T12:39:39.263Z,14.06
2017-03-01T12:40:49.736Z,14.04
2017-03-01T12:41:59.227Z,14.02
2017-03-01T12:43:09.510Z,14.14
2017-03-01T12:44:19.804Z,14.06
2017-03-01T12:45:30.080Z,14.07
2017-03-01T12:46:41.100Z,14.07
2017-03-01T12:47:51.374Z,14.21
2017-03-01T12:49:02.050Z,14.18
2017-03-01T12:50:12.727Z,14.28
2017-03-01T12:51:23.013Z,14.22
2017-03-01T12:52:33.987Z,14.22
2017-03-01T12:53:44.641Z,14.32
2017-03-01T12:54:54.534Z,14.29
2017-03-01T12:56:04.409Z,14.39
2017-03-01T12:57:15.065Z,14.43
2017-03-01T12:58:25.444Z,14.46
2017-03-01T12:59:35.336Z,14.47
2017-03-01T13:00:46.006Z,14.47
2017-03-01T13:01:56.301Z,14.5
2017-03-01T13:03:06.597Z,14.57
2017-03-01T13:04:16.666Z,14.61
2017-03-01T13:05:27.363Z,14.72
2017-03-01T13:06:38.035Z,14.77
2017-03-01T13:07:47.145Z,14.72
2017-03-01T13:08:57.812Z,14.78
2017-03-01T13:10:08.380Z,14.89
2017-03-01T13:11:18.651Z,14.88
2017-03-01T13:12:28.932Z,14.84
2017-03-01T13:13:39.608Z,14.95
2017-03-01T13:14:50.293Z,14.98
2017-03-01T13:16:00.836Z,14.98
2017-03-01T13:17:11.112Z,15.1
2017-03-01T13:18:21.393Z,15.06
2017-03-01T13:19:31.272Z,15.13
2017-03-01T13:20:41.579Z,15.13
2017-03-01T13:21:52.600Z,15.14
2017-03-01T13:23:03.270Z,15.13
2017-03-01T13:24:13.947Z,15.16
2017-03-01T13:25:23.831Z,15.11
2017-03-01T13:26:34.119Z,15.27
2017-03-01T13:27:44.517Z,15.28
2017-03-01T13:28:54.781Z,15.27
2017-03-01T13:30:05.452Z,15.23
2017-03-01T13:31:16.107Z,15.25
2017-03-01T13:32:26.408Z,15.36
2017-03-01T13:33:37.238Z,15.39
2017-03-01T13:34:47.513Z,15.31
2017-03-01T13:35:57.784Z,15.31
2017-03-01T13:37:07.298Z,15.39
2017-03-01T13:38:17.573Z,15.44
2017-03-01T13:39:28.347Z,15.46
2017-03-01T13:40:38.608Z,15.43
2017-03-01T13:41:48.880Z,15.38
2017-03-01T13:42:58.767Z,15.41
2017-03-01T13:44:08.665Z,15.36
2017-03-01T13:45:18.909Z,15.36
2017-03-01T13:46:28.806Z,15.44
2017-03-01T13:47:39.072Z,15.39
2017-03-01T13:48:48.571Z,15.46
2017-03-01T13:49:58.842Z,15.38
2017-03-01T13:51:09.471Z,15.41
2017-03-01T13:52:19.377Z,15.38
2017-03-01T13:53:29.624Z,15.43
2017-03-01T13:54:39.882Z,15.38
2017-03-01T13:55:49.389Z,15.34
2017-03-01T13:57:00.008Z,15.41
2017-03-01T13:58:10.296Z,15.39
2017-03-01T13:59:20.620Z,15.32
2017-03-01T14:00:30.892Z,15.38
2017-03-01T14:01:40.378Z,15.39
2017-03-01T14:02:51.410Z,15.36
2017-03-01T14:04:02.070Z,15.39
2017-03-01T14:05:12.721Z,15.43
2017-03-01T14:06:23.021Z,15.39
2017-03-01T14:07:32.904Z,15.41
2017-03-01T14:08:43.429Z,15.5
2017-03-01T14:09:53.701Z,15.47
2017-03-01T14:11:03.597Z,15.44
2017-03-01T14:12:13.095Z,15.47
2017-03-01T14:13:23.762Z,15.43
2017-03-01T14:14:34.406Z,15.59
2017-03-01T14:15:43.902Z,15.59
2017-03-01T14:16:54.162Z,15.57
2017-03-01T14:18:04.450Z,15.59
2017-03-01T14:19:14.730Z,15.5
2017-03-01T14:20:25.323Z,15.59
2017-03-01T14:21:35.205Z,15.53
2017-03-01T14:22:45.910Z,15.59
2017-03-01T14:23:56.197Z,15.51
2017-03-01T14:25:06.869Z,15.54
2017-03-01T14:26:17.852Z,15.44
2017-03-01T14:27:27.728Z,15.47
2017-03-01T14:28:37.598Z,15.44
2017-03-01T14:29:47.878Z,15.5
2017-03-01T14:30:58.147Z,15.56
2017-03-01T14:32:07.949Z,15.46
2017-03-01T14:33:17.822Z,15.49
2017-03-01T14:34:28.507Z,15.44
2017-03-01T14:35:39.170Z,15.44
2017-03-01T14:36:49.056Z,15.41
2017-03-01T14:38:00.063Z,15.44
2017-03-01T14:39:10.318Z,15.49
2017-03-01T14:40:20.599Z,15.44
2017-03-01T14:41:30.093Z,15.39
2017-03-01T14:42:40.746Z,15.5
2017-03-01T14:43:50.752Z,15.46
2017-03-01T14:45:01.035Z,15.43
2017-03-01T14:46:11.293Z,15.49
2017-03-01T14:47:21.952Z,15.44
2017-03-01T14:48:32.238Z,15.47
2017-03-01T14:49:42.365Z,15.53
2017-03-01T14:50:53.039Z,15.47
2017-03-01T14:52:03.327Z,15.5
2017-03-01T14:53:13.601Z,15.44
2017-03-01T14:54:23.090Z,15.49
2017-03-01T14:55:33.659Z,15.53
2017-03-01T14:56:43.966Z,15.51
2017-03-01T14:57:54.632Z,15.44
2017-03-01T14:59:04.903Z,15.46
2017-03-01T15:00:14.783Z,15.43
2017-03-01T15:01:24.982Z,15.35
2017-03-01T15:02:35.255Z,15.38
2017-03-01T15:03:45.146Z,15.35
2017-03-01T15:04:55.822Z,15.36
2017-03-01T15:06:06.483Z,15.35
2017-03-01T15:07:17.292Z,15.25
2017-03-01T15:08:27.577Z,15.25